createdAt,value
2022-09-02T00:01:28.589Z,101332.66
2022-09-02T00:04:32.235Z,101329.59
2022-09-02T00:07:34.457Z,101338.53
2022-09-02T00:10:40.775Z,101341.53
2022-09-02T00:13:43.504Z,101345.34
2022-09-02T00:16:51.986Z,101358.00
2022-09-02T00:19:56.284Z,101355.00
2022-09-02T00:22:58.804Z,101356.19
2022-09-02T00:26:00.904Z,101355.47
2022-09-02T00:29:03.958Z,101360.75
2022-09-02T00:32:06.558Z,101355.25
2022-09-02T00:35:10.192Z,101362.38
2022-09-02T00:38:13.125Z,101370.34
2022-09-02T00:41:15.627Z,101372.81
2022-09-02T00:44:20.068Z,101373.19
2022-09-02T00:47:23.166Z,101372.06
2022-09-02T00:50:30.484Z,101375.91
2022-09-02T00:53:32.991Z,101369.94
2022-09-02T00:56:39.426Z,101381.16
2022-09-02T00:59:48.808Z,101384.75
2022-09-02T01:03:00.856Z,101385.81
2022-09-02T01:06:03.491Z,101387.03
2022-09-02T01:09:13.329Z,101387.47
2022-09-02T01:12:16.368Z,101384.69
2022-09-02T01:15:18.674Z,101387.66
2022-09-02T01:21:52.973Z,101392.69
2022-09-02T01:25:00.598Z,101389.28
2022-09-02T01:28:09.319Z,101384.31
2022-09-02T01:31:11.400Z,101382.09
2022-09-02T01:34:14.351Z,101392.38
2022-09-02T01:37:17.143Z,101397.16
2022-09-02T01:40:19.354Z,101382.81
2022-09-02T01:43:25.059Z,101404.16
2022-09-02T01:46:27.476Z,101385.63
2022-09-02T01:49:29.719Z,101406.28
2022-09-02T01:52:38.041Z,101403.09
2022-09-02T01:55:40.389Z,101410.94
2022-09-02T01:58:42.960Z,101419.47
2022-09-02T02:01:46.207Z,101420.41
2022-09-02T02:04:49.549Z,101423.16
2022-09-02T02:07:52.314Z,101405.47
2022-09-02T02:10:54.525Z,101415.13
2022-09-02T02:13:58.191Z,101425.53
2022-09-02T02:17:01.665Z,101419.28
2022-09-02T02:20:05.366Z,101413.78
2022-09-02T02:23:07.952Z,101416.06
2022-09-02T02:26:10.126Z,101406.16
2022-09-02T02:29:14.305Z,101433.44
2022-09-02T02:32:18.594Z,101435.25
2022-09-02T02:35:21.378Z,101415.38
2022-09-02T02:38:24.910Z,101442.88
2022-09-02T02:41:27.314Z,101452.63
2022-09-02T02:44:29.764Z,101421.84
2022-09-02T02:47:32.023Z,101436.88
2022-09-02T02:50:34.237Z,101447.00
2022-09-02T02:53:37.123Z,101443.50
2022-09-02T02:56:39.815Z,101440.44
2022-09-02T02:59:42.150Z,101448.06
2022-09-02T03:02:47.268Z,101440.91
2022-09-02T03:05:50.979Z,101450.59
2022-09-02T03:08:53.946Z,101435.94
2022-09-02T03:11:56.190Z,101442.50
2022-09-02T03:14:58.606Z,101450.91
2022-09-02T03:18:01.170Z,101459.28
2022-09-02T03:21:08.435Z,101453.53
2022-09-02T03:24:12.317Z,101450.59
2022-09-02T03:27:14.634Z,101457.28
2022-09-02T03:30:28.818Z,101449.88
2022-09-02T03:33:32.512Z,101453.25
2022-09-02T03:36:38.985Z,101447.84
2022-09-02T03:39:42.525Z,101445.69
2022-09-02T03:42:44.782Z,101444.47
2022-09-02T03:45:49.234Z,101440.69
2022-09-02T03:48:52.077Z,101441.06
2022-09-02T03:51:55.449Z,101454.41
2022-09-02T03:54:58.612Z,101450.59
2022-09-02T03:58:05.439Z,101443.44
2022-09-02T04:01:21.558Z,101460.03
2022-09-02T04:04:24.361Z,101457.75
2022-09-02T04:07:27.930Z,101475.66
2022-09-02T04:10:30.462Z,101470.63
2022-09-02T04:13:33.498Z,101478.63
2022-09-02T04:16:37.059Z,101476.97
2022-09-02T04:19:42.119Z,101490.59
2022-09-02T04:22:44.491Z,101485.56
2022-09-02T04:25:46.600Z,101496.72
2022-09-02T04:28:51.375Z,101497.56
2022-09-02T04:31:54.307Z,101491.44
2022-09-02T04:34:58.155Z,101495.47
2022-09-02T04:38:03.111Z,101488.94
2022-09-02T04:41:08.585Z,101496.41
2022-09-02T04:44:11.273Z,101508.81
2022-09-02T04:47:16.720Z,101480.72
2022-09-02T04:50:19.925Z,101492.97
2022-09-02T04:53:34.123Z,101484.06
2022-09-02T04:59:43.158Z,101482.97
2022-09-02T05:02:47.409Z,101485.19
2022-09-02T05:05:59.837Z,101479.94
2022-09-02T05:09:04.390Z,101485.94
2022-09-02T05:12:09.263Z,101494.81
2022-09-02T05:15:20.065Z,101474.97
2022-09-02T05:18:23.748Z,101484.22
2022-09-02T05:21:26.485Z,101493.06
2022-09-02T05:24:30.330Z,101476.88
2022-09-02T05:27:37.077Z,101479.50
2022-09-02T05:30:42.125Z,101475.75
2022-09-02T05:33:45.599Z,101491.06
2022-09-02T05:36:53.949Z,101475.66
2022-09-02T05:39:56.408Z,101480.69
2022-09-02T05:43:01.371Z,101478.41
2022-09-02T05:46:07.156Z,101479.50
2022-09-02T05:49:17.326Z,101493.13
2022-09-02T05:52:24.508Z,101477.78
2022-09-02T05:55:28.971Z,101482.75
2022-09-02T05:58:32.460Z,101489.41
2022-09-02T06:01:35.760Z,101494.50
2022-09-02T06:04:41.244Z,101507.28
2022-09-02T06:07:44.620Z,101503.44
2022-09-02T06:10:47.297Z,101498.31
2022-09-02T06:13:55.623Z,101501.66
2022-09-02T06:16:59.853Z,101496.41
2022-09-02T06:20:09.430Z,101515.94
2022-09-02T06:23:16.250Z,101510.66
2022-09-02T06:26:19.066Z,101522.72
2022-09-02T06:29:23.721Z,101518.53
2022-09-02T06:32:25.845Z,101520.03
2022-09-02T06:35:38.110Z,101526.63
2022-09-02T06:38:45.944Z,101528.53
2022-09-02T06:41:49.365Z,101517.53
2022-09-02T06:44:53.668Z,101527.38
2022-09-02T06:47:56.782Z,101526.31
2022-09-02T06:50:59.090Z,101512.56
2022-09-02T06:54:04.405Z,101522.03
2022-09-02T06:57:09.011Z,101518.19
2022-09-02T07:00:13.044Z,101505.16
2022-09-02T07:03:35.294Z,101530.38
2022-09-02T07:06:40.097Z,101524.91
2022-09-02T07:09:42.819Z,101533.28
2022-09-02T07:12:48.961Z,101501.72
2022-09-02T07:15:52.640Z,101533.50
2022-09-02T07:18:55.953Z,101528.47
2022-09-02T07:21:58.290Z,101529.81
2022-09-02T07:25:02.210Z,101534.16
2022-09-02T07:28:06.057Z,101535.22
2022-09-02T07:31:12.079Z,101533.91
2022-09-02T07:34:16.546Z,101526.91
2022-09-02T07:37:19.493Z,101531.16
2022-09-02T07:40:23.872Z,101522.78
2022-09-02T07:43:28.613Z,101515.69
2022-09-02T07:46:32.404Z,101521.72
2022-09-02T07:52:59.388Z,101528.53
2022-09-02T07:56:05.775Z,101522.66
2022-09-02T07:59:07.889Z,101518.44
2022-09-02T08:02:10.247Z,101521.19
2022-09-02T08:05:14.106Z,101519.41
2022-09-02T08:08:20.467Z,101512.06
2022-09-02T08:11:23.845Z,101523.09
2022-09-02T08:14:28.922Z,101511.34
2022-09-02T08:17:32.147Z,101520.16
2022-09-02T08:20:35.182Z,101510.00
2022-09-02T08:23:37.842Z,101519.41
2022-09-02T08:26:40.611Z,101507.13
2022-09-02T08:29:42.949Z,101506.25
2022-09-02T08:32:45.062Z,101519.66
2022-09-02T08:35:48.334Z,101520.94
2022-09-02T08:38:50.556Z,101527.44
2022-09-02T08:42:25.110Z,101530.97
2022-09-02T08:45:37.840Z,101524.63
2022-09-02T08:48:42.833Z,101514.25
2022-09-02T08:51:53.247Z,101519.72
2022-09-02T08:54:56.390Z,101518.59
2022-09-02T08:57:58.931Z,101519.72
2022-09-02T09:01:17.029Z,101517.38
2022-09-02T09:04:37.896Z,101524.38
2022-09-02T09:08:14.791Z,101523.38
2022-09-02T09:11:48.008Z,101514.88
2022-09-02T09:14:55.448Z,101514.81
2022-09-02T09:18:08.709Z,101517.16
2022-09-02T09:21:11.388Z,101502.44
2022-09-02T09:24:28.436Z,101520.81
2022-09-02T09:27:30.861Z,101520.63
2022-09-02T09:30:33.068Z,101510.91
2022-09-02T09:33:35.230Z,101517.03
2022-09-02T09:36:54.557Z,101524.34
2022-09-02T09:39:56.607Z,101529.81
2022-09-02T09:46:32.535Z,101532.56
2022-09-02T09:49:34.809Z,101526.69
2022-09-02T09:52:38.178Z,101532.50
2022-09-02T09:55:50.489Z,101524.50
2022-09-02T09:58:52.921Z,101517.69
2022-09-02T10:01:55.162Z,101525.28
2022-09-02T10:05:17.781Z,101511.38
2022-09-02T10:08:23.803Z,101524.56
2022-09-02T10:11:28.626Z,101521.38
2022-09-02T10:14:48.448Z,101497.06
2022-09-02T10:17:59.783Z,101511.66
2022-09-02T10:21:38.380Z,101515.69
2022-09-02T10:24:42.979Z,101510.53
2022-09-02T10:28:34.372Z,101510.84
2022-09-02T10:32:01.369Z,101509.69
2022-09-02T10:35:27.188Z,101518.75
2022-09-02T10:38:47.705Z,101520.69
2022-09-02T10:41:50.302Z,101512.06
2022-09-02T10:45:04.554Z,101516.16
2022-09-02T10:48:19.171Z,101522.28
2022-09-02T10:51:33.527Z,101520.75
2022-09-02T10:55:20.206Z,101518.63
2022-09-02T10:58:47.114Z,101507.94
2022-09-02T11:01:58.646Z,101496.94
2022-09-02T11:05:07.577Z,101506.88
2022-09-02T11:08:32.769Z,101519.78
2022-09-02T11:12:00.109Z,101514.50
2022-09-02T11:15:09.695Z,101516.28
2022-09-02T11:18:32.639Z,101516.72
2022-09-02T11:21:50.008Z,101521.16
2022-09-02T11:25:31.452Z,101515.03
2022-09-02T11:28:44.097Z,101514.56
2022-09-02T11:31:52.494Z,101516.41
2022-09-02T11:34:58.597Z,101509.75
2022-09-02T11:38:22.463Z,101511.66
2022-09-02T11:41:42.057Z,101516.69
2022-09-02T11:45:13.244Z,101504.19
2022-09-02T11:48:37.890Z,101504.78
2022-09-02T11:51:48.753Z,101510.66
2022-09-02T11:55:06.719Z,101498.84
2022-09-02T11:58:12.027Z,101500.47
2022-09-02T12:01:15.398Z,101501.94
2022-09-02T12:07:49.769Z,101488.56
2022-09-02T12:10:51.901Z,101498.47
2022-09-02T12:13:53.990Z,101495.09
2022-09-02T12:17:03.893Z,101491.44
2022-09-02T12:20:09.751Z,101487.41
2022-09-02T12:23:49.061Z,101490.53
2022-09-02T12:26:51.716Z,101488.63
2022-09-02T12:29:54.129Z,101479.34
2022-09-02T12:33:05.222Z,101491.19
2022-09-02T12:36:09.148Z,101491.78
2022-09-02T12:39:23.797Z,101485.44
2022-09-02T12:42:33.565Z,101477.25
2022-09-02T12:45:43.878Z,101482.28
2022-09-02T12:48:59.790Z,101473.00
2022-09-02T12:52:03.975Z,101474.47
2022-09-02T12:55:18.471Z,101471.72
2022-09-02T12:58:22.663Z,101467.72
2022-09-02T13:01:35.114Z,101458.28
2022-09-02T13:04:49.359Z,101458.28
2022-09-02T13:08:06.586Z,101467.19
2022-09-02T13:11:33.397Z,101459.19
2022-09-02T13:14:35.469Z,101458.19
2022-09-02T13:18:13.089Z,101458.81
2022-09-02T13:22:03.205Z,101455.06
2022-09-02T13:25:07.931Z,101450.22
2022-09-02T13:28:23.966Z,101453.78
2022-09-02T13:31:27.983Z,101455.91
2022-09-02T13:34:31.837Z,101447.22
2022-09-02T13:37:43.482Z,101445.94
2022-09-02T13:40:46.350Z,101447.75
2022-09-02T13:44:06.254Z,101448.91
2022-09-02T13:47:17.677Z,101441.28
2022-09-02T13:50:23.285Z,101445.25
2022-09-02T13:54:05.583Z,101455.16
2022-09-02T13:56:53.868Z,101432.59
2022-09-02T13:59:58.460Z,101425.16
2022-09-02T14:03:05.319Z,101446.09
2022-09-02T14:06:08.303Z,101451.19
2022-09-02T14:09:26.845Z,101445.44
2022-09-02T14:12:32.912Z,101439.75
2022-09-02T14:15:35.758Z,101440.75
2022-09-02T14:18:37.882Z,101437.94
2022-09-02T14:21:49.473Z,101436.91
2022-09-02T14:24:51.736Z,101457.50
2022-09-02T14:27:56.405Z,101449.22
2022-09-02T14:31:00.142Z,101458.81
2022-09-02T14:34:02.501Z,101448.75
2022-09-02T14:37:28.742Z,101458.13
2022-09-02T14:40:43.535Z,101459.94
2022-09-02T14:43:55.259Z,101456.50
2022-09-02T14:47:01.613Z,101446.84
2022-09-02T14:50:04.022Z,101454.59
2022-09-02T14:53:09.370Z,101445.94
2022-09-02T14:56:11.758Z,101447.81
2022-09-02T14:59:14.079Z,101439.81
2022-09-02T15:02:28.069Z,101447.75
2022-09-02T15:05:30.122Z,101441.75
2022-09-02T15:08:32.271Z,101438.56
2022-09-02T15:11:34.610Z,101446.16
2022-09-02T15:14:36.664Z,101444.50
2022-09-02T15:17:38.727Z,101443.34
2022-09-02T15:20:40.826Z,101437.75
2022-09-02T15:23:45.735Z,101430.03
2022-09-02T15:26:51.404Z,101441.78
2022-09-02T15:29:53.517Z,101407.94
2022-09-02T15:32:56.264Z,101431.72
2022-09-02T15:36:09.717Z,101431.16
2022-09-02T15:39:11.910Z,101415.75
2022-09-02T15:42:14.974Z,101422.69
2022-09-02T15:45:17.028Z,101419.75
2022-09-02T15:48:19.067Z,101416.88
2022-09-02T15:51:23.465Z,101425.81
2022-09-02T15:54:25.627Z,101419.75
2022-09-02T15:57:28.007Z,101419.88
2022-09-02T16:00:35.146Z,101406.09
2022-09-02T16:03:37.930Z,101408.13
2022-09-02T16:06:42.479Z,101402.75
2022-09-02T16:09:44.521Z,101416.38
2022-09-02T16:12:48.494Z,101411.72
2022-09-02T16:15:51.450Z,101417.78
2022-09-02T16:18:54.437Z,101420.69
2022-09-02T16:21:56.509Z,101440.09
2022-09-02T16:24:58.605Z,101426.19
2022-09-02T16:28:01.698Z,101437.19
2022-09-02T16:31:05.534Z,101417.31
2022-09-02T16:34:17.186Z,101433.84
2022-09-02T16:37:19.547Z,101422.31
2022-09-02T16:40:21.841Z,101418.34
2022-09-02T16:43:24.855Z,101424.84
2022-09-02T16:46:28.493Z,101419.66
2022-09-02T16:49:32.090Z,101423.53
2022-09-02T16:52:35.324Z,101419.00
2022-09-02T16:55:42.167Z,101426.03
2022-09-02T16:58:44.416Z,101421.25
2022-09-02T17:01:46.740Z,101426.66
2022-09-02T17:04:48.916Z,101421.97
2022-09-02T17:07:52.510Z,101425.16
2022-09-02T17:11:16.238Z,101433.94
2022-09-02T17:14:18.878Z,101433.22
2022-09-02T17:17:21.066Z,101435.75
2022-09-02T17:20:24.124Z,101440.53
2022-09-02T17:23:26.226Z,101446.81
2022-09-02T17:26:31.408Z,101437.88
2022-09-02T17:29:49.796Z,101438.13
2022-09-02T17:32:56.365Z,101437.63
2022-09-02T17:36:01.805Z,101443.91
2022-09-02T17:39:09.775Z,101450.69
2022-09-02T17:42:12.202Z,101447.66
2022-09-02T17:45:14.387Z,101419.53
2022-09-02T17:48:35.660Z,101439.78
2022-09-02T17:51:40.044Z,101439.44
2022-09-02T17:54:42.967Z,101440.59
2022-09-02T17:58:03.277Z,101437.03
2022-09-02T18:01:12.683Z,101433.16
2022-09-02T18:04:26.611Z,101450.88
2022-09-02T18:07:41.565Z,101446.16
2022-09-02T18:10:57.455Z,101444.88
2022-09-02T18:14:18.918Z,101441.50
2022-09-02T18:18:03.769Z,101442.63
2022-09-02T18:21:18.131Z,101442.13
2022-09-02T18:25:04.002Z,101445.78
2022-09-02T18:28:38.822Z,101450.44
2022-09-02T18:32:08.420Z,101461.06
2022-09-02T18:35:29.147Z,101465.66
2022-09-02T18:38:48.920Z,101467.22
2022-09-02T18:42:03.232Z,101459.72
2022-09-02T18:45:26.738Z,101470.03
2022-09-02T18:48:33.116Z,101466.84
2022-09-02T18:51:41.138Z,101458.81
2022-09-02T18:55:03.224Z,101460.19
2022-09-02T18:58:18.174Z,101432.94
2022-09-02T19:01:27.478Z,101455.69
2022-09-02T19:04:33.241Z,101435.19
2022-09-02T19:07:55.326Z,101463.22
2022-09-02T19:11:08.890Z,101467.78
2022-09-02T19:14:27.387Z,101466.28
2022-09-02T19:17:29.582Z,101458.69
2022-09-02T19:20:35.603Z,101461.13
2022-09-02T19:23:37.970Z,101457.94
2022-09-02T19:26:43.647Z,101452.06
2022-09-02T19:29:56.380Z,101456.81
2022-09-02T19:33:00.734Z,101450.56
2022-09-02T19:36:03.209Z,101453.03
2022-09-02T19:39:05.649Z,101457.03
2022-09-02T19:42:07.792Z,101452.34
2022-09-02T19:45:14.172Z,101453.09
2022-09-02T19:48:20.068Z,101459.44
2022-09-02T19:51:26.984Z,101449.31
2022-09-02T19:54:29.569Z,101459.91
2022-09-02T19:57:31.609Z,101456.94
2022-09-02T20:00:33.933Z,101465.66
2022-09-02T20:03:36.167Z,101444.72
2022-09-02T20:06:38.414Z,101458.56
2022-09-02T20:09:41.370Z,101456.22
2022-09-02T20:12:43.673Z,101456.16
2022-09-02T20:15:45.727Z,101457.59
2022-09-02T20:18:49.614Z,101445.84
2022-09-02T20:21:51.767Z,101467.38
2022-09-02T20:24:55.164Z,101474.09
2022-09-02T20:28:20.321Z,101474.28
2022-09-02T20:32:08.799Z,101469.41
2022-09-02T20:35:25.984Z,101468.06
2022-09-02T20:38:54.016Z,101459.41
2022-09-02T20:42:06.494Z,101454.75
2022-09-02T20:45:50.028Z,101467.63
2022-09-02T20:49:19.486Z,101459.25
2022-09-02T20:52:42.998Z,101467.91
2022-09-02T20:56:02.748Z,101475.47
2022-09-02T20:59:22.997Z,101480.94
2022-09-02T21:02:33.705Z,101471.66
2022-09-02T21:05:41.503Z,101461.53
2022-09-02T21:09:19.649Z,101461.75
2022-09-02T21:12:41.034Z,101455.81
2022-09-02T21:16:08.350Z,101443.63
2022-09-02T21:19:22.712Z,101444.34
2022-09-02T21:22:39.800Z,101441.72
2022-09-02T21:26:11.262Z,101443.56
2022-09-02T21:29:22.956Z,101444.09
2022-09-02T21:32:33.794Z,101445.31
2022-09-02T21:35:44.394Z,101440.63
2022-09-02T21:38:48.028Z,101434.69
2022-09-02T21:42:10.126Z,101448.88
2022-09-02T21:45:23.216Z,101444.47
2022-09-02T21:48:25.517Z,101461.31
2022-09-02T21:51:37.218Z,101456.66
2022-09-02T21:54:45.101Z,101458.22
2022-09-02T21:58:06.498Z,101461.59
2022-09-02T22:01:14.501Z,101464.59
2022-09-02T22:04:41.949Z,101454.25
2022-09-02T22:08:00.059Z,101445.34
2022-09-02T22:11:33.288Z,101446.81
2022-09-02T22:15:10.421Z,101452.13
2022-09-02T22:18:24.834Z,101443.50
2022-09-02T22:21:51.533Z,101445.81
2022-09-02T22:24:55.398Z,101429.81
2022-09-02T22:28:12.540Z,101426.63
2022-09-02T22:31:18.810Z,101433.50
2022-09-02T22:34:23.949Z,101426.84
2022-09-02T22:37:40.265Z,101421.38
2022-09-02T22:41:04.130Z,101426.03
2022-09-02T22:44:18.550Z,101428.06
2022-09-02T22:47:40.830Z,101428.06
2022-09-02T22:51:08.091Z,101428.72
2022-09-02T22:54:10.329Z,101415.94
2022-09-02T22:57:12.687Z,101418.75
2022-09-02T23:00:17.058Z,101407.50
2022-09-02T23:03:54.512Z,101423.28
2022-09-02T23:06:59.127Z,101429.75
2022-09-02T23:10:02.261Z,101423.81
2022-09-02T23:13:23.226Z,101404.19
2022-09-02T23:17:03.822Z,101416.84
2022-09-02T23:20:09.649Z,101416.44
2022-09-02T23:23:14.785Z,101410.50
2022-09-02T23:26:30.546Z,101420.75
2022-09-02T23:29:34.288Z,101425.44
2022-09-02T23:32:51.191Z,101429.03
2022-09-02T23:36:35.345Z,101433.84
2022-09-02T23:39:46.459Z,101434.88
2022-09-02T23:42:49.905Z,101443.41
2022-09-02T23:45:56.268Z,101447.59
2022-09-02T23:49:15.152Z,101454.09
2022-09-02T23:52:46.522Z,101448.78
2022-09-02T23:55:58.442Z,101447.72
2022-09-02T23:59:03.989Z,101443.50
